createdAt,value
2023-02-21T00:02:01.087Z,60464.56
2023-02-21T00:04:47.248Z,60461.31
2023-02-21T00:07:34.826Z,60462.38
2023-02-21T00:10:20.398Z,60460.91
2023-02-21T00:13:06.167Z,60460.22
2023-02-21T00:15:51.823Z,60453.69
2023-02-21T00:18:37.638Z,60460.53
2023-02-21T00:21:24.500Z,60459.81
2023-02-21T00:24:11.698Z,60458.34
2023-02-21T00:26:57.350Z,60456.16
2023-02-21T00:29:43.045Z,60457.09
2023-02-21T00:32:28.762Z,60456.97
2023-02-21T00:35:14.431Z,60457.38
2023-02-21T00:38:00.112Z,60456.16
2023-02-21T00:40:47.026Z,60456.56
2023-02-21T00:43:33.181Z,60454.25
2023-02-21T00:46:19.586Z,60454.78
2023-02-21T00:49:05.352Z,60453.53
2023-02-21T00:51:51.654Z,60453.47
2023-02-21T00:54:37.375Z,60460.91
2023-02-21T00:57:24.409Z,60459.81
2023-02-21T01:00:10.187Z,60454.53
2023-02-21T01:02:56.140Z,60458.75
2023-02-21T01:05:41.929Z,60458.03
2023-02-21T01:08:27.589Z,60460.38
2023-02-21T01:11:13.532Z,60461.03
2023-02-21T01:14:01.182Z,60463.88
2023-02-21T01:16:47.870Z,60459.66
2023-02-21T01:19:33.958Z,60465.66
2023-02-21T01:22:19.690Z,60465.66
2023-02-21T01:25:07.362Z,60467.81
2023-02-21T01:27:53.022Z,60468.50
2023-02-21T01:30:40.685Z,60468.91
2023-02-21T01:33:26.694Z,60473.38
2023-02-21T01:36:12.445Z,60474.63
2023-02-21T01:38:58.261Z,60478.66
2023-02-21T01:41:44.424Z,60480.84
2023-02-21T01:44:50.798Z,60480.84
2023-02-21T01:47:38.928Z,60475.56
2023-02-21T01:50:36.718Z,60479.75
2023-02-21T01:53:26.839Z,60464.69
2023-02-21T01:56:14.494Z,60465.94
2023-02-21T01:59:00.535Z,60477.97
2023-02-21T02:01:55.526Z,60478.81
2023-02-21T02:04:42.724Z,60479.34
2023-02-21T02:07:28.912Z,60487.34
2023-02-21T02:10:14.857Z,60490.59
2023-02-21T02:13:07.709Z,60485.19
2023-02-21T02:15:46.857Z,60493.84
2023-02-21T02:18:36.216Z,60487.34
2023-02-21T02:21:54.924Z,60491.16
2023-02-21T02:24:42.765Z,60491.69
2023-02-21T02:27:27.480Z,60500.78
2023-02-21T02:30:05.457Z,60494.97
2023-02-21T02:32:45.892Z,60494.00
2023-02-21T02:35:22.613Z,60501.09
2023-02-21T02:37:56.616Z,60508.56
2023-02-21T02:40:34.024Z,60502.88
2023-02-21T02:43:08.070Z,60503.94
2023-02-21T02:45:41.714Z,60511.28
2023-02-21T02:48:16.212Z,60508.84
2023-02-21T02:50:48.321Z,60514.50
2023-02-21T02:53:21.246Z,60517.78
2023-02-21T02:55:54.356Z,60516.16
2023-02-21T02:58:25.131Z,60515.59
2023-02-21T03:01:06.693Z,60513.44
2023-02-21T03:03:59.865Z,60512.88
2023-02-21T03:06:37.888Z,60522.09
2023-02-21T03:09:13.897Z,60518.47
2023-02-21T03:11:52.418Z,60518.47
2023-02-21T03:14:25.295Z,60527.16
2023-02-21T03:16:58.521Z,60526.47
2023-02-21T03:19:30.393Z,60521.31
2023-02-21T03:22:03.830Z,60532.97
2023-02-21T03:24:33.462Z,60536.38
2023-02-21T03:27:05.493Z,60536.53
2023-02-21T03:29:35.657Z,60544.91
2023-02-21T03:32:11.524Z,60538.69
2023-02-21T03:34:40.649Z,60543.84
2023-02-21T03:37:19.614Z,60542.34
2023-02-21T03:39:48.060Z,60544.13
2023-02-21T03:42:16.373Z,60544.13
2023-02-21T03:44:44.693Z,60553.22
2023-02-21T03:47:12.996Z,60551.44
2023-02-21T03:49:41.441Z,60554.97
2023-02-21T03:52:13.433Z,60551.44
2023-02-21T03:54:42.281Z,60552.53
2023-02-21T03:57:10.621Z,60553.63
2023-02-21T03:59:38.959Z,60554.84
2023-02-21T04:02:07.340Z,60553.91
2023-02-21T04:04:35.910Z,60557.19
2023-02-21T04:07:04.253Z,60565.56
2023-02-21T04:09:34.421Z,60565.84
2023-02-21T04:12:02.904Z,60569.91
2023-02-21T04:14:31.464Z,60572.09
2023-02-21T04:16:59.780Z,60572.09
2023-02-21T04:19:28.114Z,60575.88
2023-02-21T04:21:56.434Z,60576.72
2023-02-21T04:24:25.406Z,60580.00
2023-02-21T04:26:55.116Z,60578.34
2023-02-21T04:29:23.512Z,60582.94
2023-02-21T04:31:52.194Z,60580.53
2023-02-21T04:34:20.573Z,60585.13
2023-02-21T04:36:48.932Z,60582.41
2023-02-21T04:39:17.400Z,60583.66
2023-02-21T04:41:45.712Z,60593.28
2023-02-21T04:44:17.561Z,60587.44
2023-02-21T04:46:45.914Z,60582.94
2023-02-21T04:49:14.808Z,60580.78
2023-02-21T04:51:43.371Z,60577.81
2023-02-21T04:54:14.011Z,60570.59
2023-02-21T04:56:42.532Z,60571.00
2023-02-21T04:59:10.930Z,60563.13
2023-02-21T05:01:40.905Z,60565.03
2023-02-21T05:04:09.678Z,60551.75
2023-02-21T05:06:38.028Z,60554.16
2023-02-21T05:09:06.451Z,60541.25
2023-02-21T05:11:36.126Z,60548.19
2023-02-21T05:14:04.909Z,60548.19
2023-02-21T05:16:33.341Z,60535.84
2023-02-21T05:19:03.387Z,60539.66
2023-02-21T05:21:35.989Z,60546.56
2023-02-21T05:24:04.668Z,60539.09
2023-02-21T05:26:36.143Z,60535.44
2023-02-21T05:29:05.031Z,60533.13
2023-02-21T05:31:33.783Z,60527.16
2023-02-21T05:34:03.610Z,60531.50
2023-02-21T05:36:31.993Z,60531.34
2023-02-21T05:39:00.350Z,60532.28
2023-02-21T05:41:28.764Z,60519.16
2023-02-21T05:43:57.517Z,60519.94
2023-02-21T05:46:28.005Z,60514.13
2023-02-21T05:48:57.779Z,60514.81
2023-02-21T05:51:27.887Z,60523.22
2023-02-21T05:53:56.216Z,60520.50
2023-02-21T05:56:24.687Z,60519.41
2023-02-21T05:58:53.005Z,60524.28
2023-02-21T06:01:21.340Z,60522.09
2023-02-21T06:03:49.781Z,60514.50
2023-02-21T06:06:18.149Z,60521.56
2023-02-21T06:08:49.276Z,60510.47
2023-02-21T06:11:24.558Z,60515.59
2023-02-21T06:13:53.405Z,60512.88
2023-02-21T06:16:22.179Z,60513.72
2023-02-21T06:18:51.408Z,60512.66
2023-02-21T06:21:19.913Z,60515.75
2023-02-21T06:23:50.252Z,60515.22
2023-02-21T06:26:21.639Z,60521.56
2023-02-21T06:28:50.809Z,60523.22
2023-02-21T06:31:21.082Z,60524.28
2023-02-21T06:33:50.513Z,60521.56
2023-02-21T06:36:22.625Z,60525.38
2023-02-21T06:38:55.088Z,60527.41
2023-02-21T06:41:26.434Z,60518.59
2023-02-21T06:43:55.865Z,60517.78
2023-02-21T06:46:26.287Z,60516.00
2023-02-21T06:48:54.653Z,60509.09
2023-02-21T06:51:29.329Z,60511.78
2023-02-21T06:54:00.249Z,60513.44
2023-02-21T06:56:28.890Z,60505.84
2023-02-21T06:58:57.658Z,60509.09
2023-02-21T07:01:27.883Z,60503.28
2023-02-21T07:03:57.472Z,60502.88
2023-02-21T07:06:27.924Z,60511.56
2023-02-21T07:08:59.438Z,60500.16
2023-02-21T07:11:35.819Z,60508.00
2023-02-21T07:14:04.260Z,60508.41
2023-02-21T07:16:32.585Z,60505.97
2023-02-21T07:19:00.889Z,60508.00
2023-02-21T07:21:29.229Z,60505.44
2023-02-21T07:23:59.061Z,60509.09
2023-02-21T07:26:27.360Z,60505.84
2023-02-21T07:28:55.751Z,60497.44
2023-02-21T07:31:24.404Z,60499.31
2023-02-21T07:33:52.736Z,60500.41
2023-02-21T07:36:21.170Z,60504.19
2023-02-21T07:38:49.676Z,60499.44
2023-02-21T07:41:19.523Z,60508.56
2023-02-21T07:43:47.826Z,60511.66
2023-02-21T07:46:17.785Z,60506.13
2023-02-21T07:48:46.270Z,60512.88
2023-02-21T07:51:14.969Z,60519.41
2023-02-21T07:53:43.783Z,60514.50
2023-02-21T07:56:12.191Z,60518.31
2023-02-21T07:58:41.847Z,60522.66
2023-02-21T08:01:10.565Z,60520.25
2023-02-21T08:03:40.849Z,60525.22
2023-02-21T08:06:10.096Z,60521.31
2023-02-21T08:08:38.388Z,60520.09
2023-02-21T08:11:07.060Z,60519.94
2023-02-21T08:13:35.407Z,60532.28
2023-02-21T08:16:05.356Z,60534.06
2023-02-21T08:18:33.653Z,60529.31
2023-02-21T08:21:01.977Z,60542.22
2023-02-21T08:23:30.301Z,60540.97
2023-02-21T08:25:58.648Z,60544.91
2023-02-21T08:28:26.963Z,60544.91
2023-02-21T08:30:55.292Z,60542.91
2023-02-21T08:33:25.015Z,60552.53
2023-02-21T08:35:53.329Z,60550.63
2023-02-21T08:38:22.131Z,60551.03
2023-02-21T08:40:51.422Z,60547.94
2023-02-21T08:43:19.762Z,60554.69
2023-02-21T08:45:48.155Z,60553.63
2023-02-21T08:48:16.746Z,60558.25
2023-02-21T08:50:46.615Z,60559.34
2023-02-21T08:53:15.581Z,60563.00
2023-02-21T08:55:44.198Z,60566.66
2023-02-21T08:58:13.708Z,60566.25
2023-02-21T09:00:42.051Z,60576.44
2023-02-21T09:03:10.558Z,60584.03
2023-02-21T09:05:39.969Z,60587.31
2023-02-21T09:08:10.430Z,60596.53
2023-02-21T09:10:47.207Z,60593.41
2023-02-21T09:13:15.869Z,60590.31
2023-02-21T09:15:44.508Z,60593.81
2023-02-21T09:18:13.470Z,60584.72
2023-02-21T09:20:42.799Z,60583.66
2023-02-21T09:23:15.358Z,60582.94
2023-02-21T09:25:43.666Z,60592.19
2023-02-21T09:28:11.994Z,60581.31
2023-02-21T09:30:40.326Z,60585.13
2023-02-21T09:33:08.989Z,60582.94
2023-02-21T09:35:37.294Z,60572.09
2023-02-21T09:38:07.130Z,60586.22
2023-02-21T09:40:42.729Z,60578.75
2023-02-21T09:43:16.154Z,60579.28
2023-02-21T09:45:45.354Z,60588.78
2023-02-21T09:48:16.166Z,60585.66
2023-02-21T09:50:48.946Z,60581.47
2023-02-21T09:53:21.790Z,60589.88
2023-02-21T09:55:54.943Z,60586.75
2023-02-21T09:58:23.244Z,60595.97
2023-02-21T10:00:51.713Z,60592.47
2023-02-21T10:03:35.343Z,60590.56
2023-02-21T10:06:12.641Z,60601.41
2023-02-21T10:08:48.570Z,60610.53
2023-02-21T10:11:35.127Z,60605.25
2023-02-21T10:14:14.181Z,60597.91
2023-02-21T10:16:47.923Z,60610.81
2023-02-21T10:19:22.887Z,60619.91
2023-02-21T10:21:51.469Z,60624.25
2023-02-21T10:24:22.417Z,60627.91
2023-02-21T10:26:59.741Z,60634.03
2023-02-21T10:29:36.782Z,60634.59
2023-02-21T10:32:05.646Z,60645.69
2023-02-21T10:34:35.197Z,60635.81
2023-02-21T10:37:14.089Z,60618.81
2023-02-21T10:39:46.996Z,60616.63
2023-02-21T10:42:25.738Z,60621.13
2023-02-21T10:44:54.521Z,60634.03
2023-02-21T10:47:27.235Z,60630.78
2023-02-21T10:50:02.522Z,60632.41
2023-02-21T10:52:37.086Z,60637.31
2023-02-21T10:55:10.630Z,60637.31
2023-02-21T10:57:45.813Z,60643.28
2023-02-21T11:00:24.588Z,60636.22
2023-02-21T11:02:57.486Z,60639.22
2023-02-21T11:05:25.894Z,60637.03
2023-02-21T11:08:00.849Z,60644.91
2023-02-21T11:10:32.799Z,60642.88
2023-02-21T11:13:15.500Z,60644.09
2023-02-21T11:15:44.405Z,60644.78
2023-02-21T11:18:18.723Z,60647.06
2023-02-21T11:20:47.717Z,60637.97
2023-02-21T11:23:21.699Z,60637.44
2023-02-21T11:25:51.174Z,60644.91
2023-02-21T11:28:23.287Z,60638.13
2023-02-21T11:31:05.217Z,60632.16
2023-02-21T11:33:38.288Z,60639.59
2023-02-21T11:36:13.076Z,60652.25
2023-02-21T11:38:43.595Z,60649.25
2023-02-21T11:41:23.258Z,60664.78
2023-02-21T11:43:57.125Z,60673.88
2023-02-21T11:46:39.122Z,60695.47
2023-02-21T11:49:18.635Z,60699.97
2023-02-21T11:51:50.314Z,60707.47
2023-02-21T11:54:22.802Z,60688.00
2023-02-21T11:57:00.559Z,60682.16
2023-02-21T11:59:46.415Z,60687.31
2023-02-21T12:02:42.622Z,60675.50
2023-02-21T12:05:26.062Z,60683.50
2023-02-21T12:08:11.897Z,60682.97
2023-02-21T12:10:49.678Z,60675.34
2023-02-21T12:13:27.075Z,60667.22
2023-02-21T12:16:05.168Z,60661.91
2023-02-21T12:18:52.754Z,60659.72
2023-02-21T12:21:36.038Z,60652.13
2023-02-21T12:24:15.369Z,60656.88
2023-02-21T12:26:51.358Z,60643.56
2023-02-21T12:29:31.893Z,60648.19
2023-02-21T12:32:27.362Z,60656.88
2023-02-21T12:35:08.564Z,60660.38
2023-02-21T12:37:43.218Z,60661.91
2023-02-21T12:40:21.094Z,60663.94
2023-02-21T12:43:12.800Z,60679.03
2023-02-21T12:45:55.924Z,60682.56
2023-02-21T12:48:34.773Z,60682.97
2023-02-21T12:51:07.536Z,60668.56
2023-02-21T12:53:41.454Z,60664.78
2023-02-21T12:56:15.104Z,60671.00
2023-02-21T12:58:49.455Z,60665.56
2023-02-21T13:01:22.402Z,60662.59
2023-02-21T13:04:04.268Z,60669.94
2023-02-21T13:06:36.525Z,60662.06
2023-02-21T13:09:14.260Z,60656.88
2023-02-21T13:11:48.500Z,60641.38
2023-02-21T13:14:19.413Z,60648.84
2023-02-21T13:16:47.917Z,60644.91
2023-02-21T13:19:17.969Z,60646.28
2023-02-21T13:22:26.693Z,60662.31
2023-02-21T13:25:08.031Z,60657.16
2023-02-21T13:27:50.050Z,60665.16
2023-02-21T13:30:23.507Z,60675.34
2023-02-21T13:32:54.872Z,60657.16
2023-02-21T13:35:31.112Z,60660.41
2023-02-21T13:38:02.293Z,60667.22
2023-02-21T13:40:37.712Z,60665.97
2023-02-21T13:43:14.041Z,60672.09
2023-02-21T13:45:42.546Z,60664.78
2023-02-21T13:48:20.288Z,60670.88
2023-02-21T13:50:52.201Z,60662.59
2023-02-21T13:53:22.218Z,60665.16
2023-02-21T13:56:14.252Z,60665.16
2023-02-21T13:58:45.033Z,60663.38
2023-02-21T14:01:43.044Z,60667.88
2023-02-21T14:05:03.039Z,60663.38
2023-02-21T14:07:44.818Z,60663.00
2023-02-21T14:10:24.860Z,60659.72
2023-02-21T14:12:57.561Z,60663.38
2023-02-21T14:15:44.470Z,60659.19
2023-02-21T14:18:22.882Z,60651.97
2023-02-21T14:20:55.085Z,60645.19
2023-02-21T14:23:32.638Z,60651.97
2023-02-21T14:26:03.422Z,60641.25
2023-02-21T14:29:02.241Z,60639.09
2023-02-21T14:31:52.796Z,60643.41
2023-02-21T14:34:28.950Z,60632.16
2023-02-21T14:37:01.159Z,60633.78
2023-02-21T14:39:37.125Z,60634.72
2023-02-21T14:42:20.337Z,60636.22
2023-02-21T14:45:05.885Z,60642.31
2023-02-21T14:47:58.864Z,60629.81
2023-02-21T14:50:37.380Z,60631.88
2023-02-21T14:53:29.827Z,60623.44
2023-02-21T14:56:22.003Z,60617.88
2023-02-21T14:59:47.396Z,60615.84
2023-02-21T15:02:24.219Z,60620.19
2023-02-21T15:05:15.788Z,60615.69
2023-02-21T15:07:54.836Z,60614.06
2023-02-21T15:10:25.943Z,60608.25
2023-02-21T15:12:57.906Z,60611.91
2023-02-21T15:15:28.897Z,60608.78
2023-02-21T15:18:06.207Z,60607.53
2023-02-21T15:20:36.239Z,60612.97
2023-02-21T15:23:13.784Z,60608.47
2023-02-21T15:25:42.425Z,60609.56
2023-02-21T15:28:26.691Z,60610.13
2023-02-21T15:31:01.816Z,60605.38
2023-02-21T15:33:35.822Z,60598.47
2023-02-21T15:36:09.126Z,60604.00
2023-02-21T15:38:44.720Z,60610.13
2023-02-21T15:41:20.665Z,60597.38
2023-02-21T15:43:54.149Z,60593.03
2023-02-21T15:46:25.599Z,60598.69
2023-02-21T15:48:57.351Z,60593.97
2023-02-21T15:51:26.258Z,60593.81
2023-02-21T15:54:12.495Z,60590.16
2023-02-21T15:56:40.829Z,60592.19
2023-02-21T15:59:14.046Z,60583.25
2023-02-21T16:01:42.983Z,60583.66
2023-02-21T16:04:20.741Z,60578.59
2023-02-21T16:06:52.703Z,60582.41
2023-02-21T16:09:28.043Z,60577.91
2023-02-21T16:12:01.199Z,60576.97
2023-02-21T16:14:39.419Z,60572.09
2023-02-21T16:17:16.314Z,60565.72
2023-02-21T16:19:48.201Z,60564.47
2023-02-21T16:22:27.539Z,60563.00
2023-02-21T16:25:18.437Z,60561.22
2023-02-21T16:27:50.130Z,60553.22
2023-02-21T16:30:23.903Z,60543.75
2023-02-21T16:32:54.093Z,60548.19
2023-02-21T16:35:24.581Z,60547.09
2023-02-21T16:37:55.688Z,60547.09
2023-02-21T16:40:26.807Z,60542.91
2023-02-21T16:42:56.828Z,60543.84
2023-02-21T16:45:26.629Z,60531.38
2023-02-21T16:47:58.181Z,60536.78
2023-02-21T16:50:30.834Z,60540.59
2023-02-21T16:52:59.571Z,60535.16
2023-02-21T16:55:28.792Z,60530.41
2023-02-21T16:58:00.390Z,60527.84
2023-02-21T17:00:31.712Z,60531.22
2023-02-21T17:03:00.485Z,60529.03
2023-02-21T17:05:29.227Z,60522.81
2023-02-21T17:07:58.573Z,60521.56
2023-02-21T17:10:27.024Z,60519.53
2023-02-21T17:12:55.396Z,60514.81
2023-02-21T17:15:23.968Z,60511.94
2023-02-21T17:17:54.153Z,60512.34
2023-02-21T17:20:23.934Z,60511.94
2023-02-21T17:22:53.104Z,60511.28
2023-02-21T17:25:23.063Z,60506.66
2023-02-21T17:27:52.030Z,60511.13
2023-02-21T17:30:23.257Z,60505.84
2023-02-21T17:32:53.741Z,60502.16
2023-02-21T17:35:24.583Z,60501.63
2023-02-21T17:37:53.026Z,60503.66
2023-02-21T17:40:22.712Z,60497.44
2023-02-21T17:42:51.224Z,60502.56
2023-02-21T17:45:20.787Z,60500.00
2023-02-21T17:47:49.955Z,60497.28
2023-02-21T17:50:20.365Z,60500.41
2023-02-21T17:52:49.224Z,60501.50
2023-02-21T17:55:20.043Z,60498.19
2023-02-21T17:57:48.344Z,60495.50
2023-02-21T18:00:21.346Z,60492.25
2023-02-21T18:02:50.091Z,60483.84
2023-02-21T18:05:20.726Z,60491.16
2023-02-21T18:07:49.581Z,60493.47
2023-02-21T18:10:18.811Z,60491.44
2023-02-21T18:12:48.708Z,60491.97
2023-02-21T18:15:21.353Z,60497.13
2023-02-21T18:17:50.642Z,60494.97
2023-02-21T18:20:21.570Z,60494.56
2023-02-21T18:22:49.868Z,60494.97
2023-02-21T18:25:21.202Z,60502.25
2023-02-21T18:27:49.572Z,60491.28
2023-02-21T18:30:18.630Z,60489.53
2023-02-21T18:32:47.674Z,60485.31
2023-02-21T18:35:16.934Z,60488.44
2023-02-21T18:37:47.151Z,60484.25
2023-02-21T18:40:16.827Z,60484.25
2023-02-21T18:42:45.901Z,60486.25
2023-02-21T18:45:14.336Z,60483.69
2023-02-21T18:47:42.957Z,60485.19
2023-02-21T18:50:11.557Z,60485.19
2023-02-21T18:52:39.936Z,60486.66
2023-02-21T18:55:10.080Z,60483.03
2023-02-21T18:57:39.903Z,60477.19
2023-02-21T19:00:10.073Z,60472.44
2023-02-21T19:02:38.394Z,60473.91
2023-02-21T19:05:07.254Z,60475.41
2023-02-21T19:07:36.459Z,60472.69
2023-02-21T19:10:06.457Z,60472.16
2023-02-21T19:12:36.174Z,60464.16
2023-02-21T19:15:05.198Z,60465.41
2023-02-21T19:17:34.705Z,60467.81
2023-02-21T19:20:05.806Z,60466.88
2023-02-21T19:22:45.531Z,60463.09
2023-02-21T19:25:17.923Z,60457.66
2023-02-21T19:27:47.753Z,60462.38
2023-02-21T19:30:27.250Z,60455.47
2023-02-21T19:32:58.841Z,60453.47
2023-02-21T19:35:27.795Z,60454.00
2023-02-21T19:37:56.489Z,60454.53
2023-02-21T19:40:26.667Z,60461.31
2023-02-21T19:42:56.377Z,60460.22
2023-02-21T19:45:24.817Z,60458.19
2023-02-21T19:50:19.105Z,60451.81
2023-02-21T19:52:52.941Z,60454.00
2023-02-21T19:55:21.695Z,60450.75
2023-02-21T19:57:50.193Z,60448.56
2023-02-21T20:00:20.614Z,60455.88
2023-02-21T20:02:49.255Z,60451.81
2023-02-21T20:05:18.345Z,60453.84
2023-02-21T20:07:46.745Z,60454.94
2023-02-21T20:10:18.036Z,60455.47
2023-02-21T20:12:46.580Z,60453.31
2023-02-21T20:15:14.999Z,60449.66
2023-02-21T20:17:44.826Z,60442.75
2023-02-21T20:20:13.285Z,60450.44
2023-02-21T20:22:41.651Z,60448.97
2023-02-21T20:25:10.111Z,60445.16
2023-02-21T20:27:38.645Z,60445.69
2023-02-21T20:30:08.123Z,60441.38
2023-02-21T20:32:36.858Z,60442.84
2023-02-21T20:35:07.314Z,60434.47
2023-02-21T20:37:36.398Z,60435.94
2023-02-21T20:40:06.238Z,60429.75
2023-02-21T20:42:34.961Z,60437.03
2023-02-21T20:45:03.411Z,60445.69
2023-02-21T20:47:31.907Z,60443.69
2023-02-21T20:50:00.490Z,60439.19
2023-02-21T20:52:30.180Z,60440.97
2023-02-21T20:54:58.659Z,60436.63
2023-02-21T20:57:27.097Z,60427.97
2023-02-21T20:59:55.442Z,60434.16
2023-02-21T21:02:24.460Z,60423.63
2023-02-21T21:04:54.349Z,60424.00
2023-02-21T21:07:25.146Z,60427.13
2023-02-21T21:09:55.188Z,60428.19
2023-02-21T21:12:24.930Z,60427.50
2023-02-21T21:14:54.190Z,60428.75
2023-02-21T21:17:22.911Z,60425.47
2023-02-21T21:19:53.372Z,60420.06
2023-02-21T21:22:24.641Z,60420.47
2023-02-21T21:24:54.709Z,60422.63
2023-02-21T21:27:23.506Z,60423.72
2023-02-21T21:29:53.730Z,60418.59
2023-02-21T21:32:25.080Z,60430.38
2023-02-21T21:34:55.875Z,60424.00
2023-02-21T21:37:26.536Z,60436.34
2023-02-21T21:39:57.391Z,60428.34
2023-02-21T21:42:28.303Z,60432.69
2023-02-21T21:44:58.218Z,60436.88
2023-02-21T21:47:28.102Z,60435.09
2023-02-21T21:49:56.463Z,60427.66
2023-02-21T21:52:24.779Z,60431.06
2023-02-21T21:54:53.142Z,60432.53
2023-02-21T21:57:27.106Z,60433.09
2023-02-21T21:59:56.121Z,60430.91
2023-02-21T22:02:24.464Z,60425.47
2023-02-21T22:04:53.546Z,60428.75
2023-02-21T22:07:22.976Z,60421.84
2023-02-21T22:09:51.319Z,60427.13
2023-02-21T22:12:20.949Z,60426.97
2023-02-21T22:14:50.786Z,60429.81
2023-02-21T22:17:19.122Z,60424.41
2023-02-21T22:19:47.526Z,60421.69
2023-02-21T22:22:16.079Z,60416.03
2023-02-21T22:24:44.424Z,60415.47
2023-02-21T22:27:12.746Z,60418.97
2023-02-21T22:29:41.105Z,60416.41
2023-02-21T22:32:11.043Z,60420.06
2023-02-21T22:34:39.371Z,60419.53
2023-02-21T22:37:10.222Z,60417.50
2023-02-21T22:39:39.337Z,60421.16
2023-02-21T22:42:08.798Z,60419.66
2023-02-21T22:44:37.613Z,60418.47
2023-02-21T22:47:06.016Z,60428.44
2023-02-21T22:49:35.666Z,60427.13
2023-02-21T22:52:04.097Z,60423.88
2023-02-21T22:54:32.566Z,60416.56
2023-02-21T22:57:01.871Z,60424.41
2023-02-21T22:59:30.353Z,60421.44
2023-02-21T23:01:59.331Z,60422.78
2023-02-21T23:04:28.003Z,60421.69
2023-02-21T23:07:00.200Z,60421.84
2023-02-21T23:09:32.870Z,60416.03
2023-02-21T23:12:01.575Z,60416.97
2023-02-21T23:14:31.510Z,60416.41
2023-02-21T23:17:00.502Z,60424.69
2023-02-21T23:19:32.132Z,60434.44
2023-02-21T23:22:03.774Z,60424.41
2023-02-21T23:24:32.147Z,60414.94
2023-02-21T23:27:02.839Z,60417.50
2023-02-21T23:29:31.200Z,60418.81
2023-02-21T23:32:09.806Z,60412.22
2023-02-21T23:34:41.518Z,60416.81
2023-02-21T23:37:13.193Z,60408.97
2023-02-21T23:39:42.324Z,60413.03
2023-02-21T23:42:11.690Z,60413.03
2023-02-21T23:44:41.196Z,60410.84
2023-02-21T23:47:09.551Z,60409.75
2023-02-21T23:49:44.038Z,60407.03
2023-02-21T23:52:15.625Z,60407.03
2023-02-21T23:54:44.152Z,60405.03
2023-02-21T23:57:12.567Z,60407.03
2023-02-21T23:59:41.639Z,60412.72
